sensor_id;sensor_type;location;lat;lon;timestamp;P1;durP1;ratioP1;P2;durP2;ratioP2
11500;SDS011;5807;51.606;7.624;2022-07-29T00:01:32;3.23;;;1.70;;
11500;SDS011;5807;51.606;7.624;2022-07-29T00:03:59;6.37;;;2.27;;
11500;SDS011;5807;51.606;7.624;2022-07-29T00:06:26;2.47;;;1.67;;
11500;SDS011;5807;51.606;7.624;2022-07-29T00:08:52;3.87;;;1.70;;
11500;SDS011;5807;51.606;7.624;2022-07-29T00:11:20;2.13;;;1.70;;
11500;SDS011;5807;51.606;7.624;2022-07-29T00:13:48;3.43;;;1.63;;
11500;SDS011;5807;51.606;7.624;2022-07-29T00:16:15;5.07;;;1.60;;
11500;SDS011;5807;51.606;7.624;2022-07-29T00:18:42;4.50;;;1.80;;
11500;SDS011;5807;51.606;7.624;2022-07-29T00:21:09;9.37;;;1.50;;
11500;SDS011;5807;51.606;7.624;2022-07-29T00:23:36;5.37;;;1.83;;
11500;SDS011;5807;51.606;7.624;2022-07-29T00:26:03;2.50;;;1.70;;
11500;SDS011;5807;51.606;7.624;2022-07-29T00:28:30;3.00;;;1.73;;
11500;SDS011;5807;51.606;7.624;2022-07-29T00:30:58;2.50;;;1.63;;
11500;SDS011;5807;51.606;7.624;2022-07-29T00:33:33;1.83;;;1.70;;
11500;SDS011;5807;51.606;7.624;2022-07-29T00:36:00;3.37;;;1.97;;
11500;SDS011;5807;51.606;7.624;2022-07-29T00:38:26;6.00;;;1.87;;
11500;SDS011;5807;51.606;7.624;2022-07-29T00:40:53;2.67;;;1.93;;
11500;SDS011;5807;51.606;7.624;2022-07-29T00:43:20;1.70;;;1.60;;
11500;SDS011;5807;51.606;7.624;2022-07-29T00:45:47;3.97;;;1.70;;
11500;SDS011;5807;51.606;7.624;2022-07-29T00:48:15;6.73;;;1.50;;
11500;SDS011;5807;51.606;7.624;2022-07-29T00:50:42;1.70;;;1.60;;
11500;SDS011;5807;51.606;7.624;2022-07-29T00:53:09;2.27;;;1.50;;
11500;SDS011;5807;51.606;7.624;2022-07-29T00:55:38;2.50;;;1.53;;
11500;SDS011;5807;51.606;7.624;2022-07-29T00:58:05;2.97;;;1.60;;
11500;SDS011;5807;51.606;7.624;2022-07-29T01:00:32;2.00;;;1.73;;
11500;SDS011;5807;51.606;7.624;2022-07-29T01:02:59;3.53;;;1.80;;
11500;SDS011;5807;51.606;7.624;2022-07-29T01:05:28;3.60;;;1.93;;
11500;SDS011;5807;51.606;7.624;2022-07-29T01:07:56;4.70;;;1.70;;
11500;SDS011;5807;51.606;7.624;2022-07-29T01:10:23;6.73;;;2.20;;
11500;SDS011;5807;51.606;7.624;2022-07-29T01:12:52;4.00;;;1.83;;
11500;SDS011;5807;51.606;7.624;2022-07-29T01:18:42;2.90;;;1.60;;
11500;SDS011;5807;51.606;7.624;2022-07-29T01:21:23;2.17;;;1.97;;
11500;SDS011;5807;51.606;7.624;2022-07-29T01:24:09;2.10;;;1.40;;
11500;SDS011;5807;51.606;7.624;2022-07-29T01:26:46;1.77;;;1.60;;
11500;SDS011;5807;51.606;7.624;2022-07-29T01:29:21;2.90;;;2.17;;
11500;SDS011;5807;51.606;7.624;2022-07-29T01:31:54;3.83;;;3.57;;
11500;SDS011;5807;51.606;7.624;2022-07-29T01:34:27;3.37;;;1.77;;
11500;SDS011;5807;51.606;7.624;2022-07-29T01:37:03;5.57;;;1.83;;
11500;SDS011;5807;51.606;7.624;2022-07-29T01:39:34;2.90;;;1.83;;
11500;SDS011;5807;51.606;7.624;2022-07-29T01:42:05;2.03;;;1.93;;
11500;SDS011;5807;51.606;7.624;2022-07-29T01:44:39;2.73;;;1.67;;
11500;SDS011;5807;51.606;7.624;2022-07-29T01:47:15;2.60;;;1.83;;
11500;SDS011;5807;51.606;7.624;2022-07-29T01:49:47;3.37;;;1.53;;
11500;SDS011;5807;51.606;7.624;2022-07-29T01:52:19;2.23;;;1.70;;
11500;SDS011;5807;51.606;7.624;2022-07-29T01:54:51;4.53;;;1.70;;
11500;SDS011;5807;51.606;7.624;2022-07-29T01:57:23;1.63;;;1.53;;
11500;SDS011;5807;51.606;7.624;2022-07-29T01:59:54;3.03;;;1.90;;
11500;SDS011;5807;51.606;7.624;2022-07-29T02:02:24;2.97;;;1.90;;
11500;SDS011;5807;51.606;7.624;2022-07-29T02:04:54;2.90;;;1.70;;
11500;SDS011;5807;51.606;7.624;2022-07-29T02:07:22;4.07;;;1.73;;
11500;SDS011;5807;51.606;7.624;2022-07-29T02:09:51;2.47;;;1.70;;
11500;SDS011;5807;51.606;7.624;2022-07-29T02:12:19;4.60;;;1.93;;
11500;SDS011;5807;51.606;7.624;2022-07-29T02:14:48;3.43;;;1.80;;
11500;SDS011;5807;51.606;7.624;2022-07-29T02:17:20;3.27;;;1.73;;
11500;SDS011;5807;51.606;7.624;2022-07-29T02:19:49;6.20;;;1.90;;
11500;SDS011;5807;51.606;7.624;2022-07-29T02:22:17;2.47;;;1.80;;
11500;SDS011;5807;51.606;7.624;2022-07-29T02:24:46;1.70;;;1.60;;
11500;SDS011;5807;51.606;7.624;2022-07-29T02:27:13;3.07;;;1.80;;
11500;SDS011;5807;51.606;7.624;2022-07-29T02:29:41;2.27;;;2.07;;
11500;SDS011;5807;51.606;7.624;2022-07-29T02:32:10;4.10;;;2.23;;
11500;SDS011;5807;51.606;7.624;2022-07-29T02:34:41;6.07;;;1.77;;
11500;SDS011;5807;51.606;7.624;2022-07-29T02:37:09;3.33;;;2.10;;
11500;SDS011;5807;51.606;7.624;2022-07-29T02:39:37;4.17;;;1.80;;
11500;SDS011;5807;51.606;7.624;2022-07-29T02:42:07;3.67;;;1.60;;
11500;SDS011;5807;51.606;7.624;2022-07-29T02:44:37;1.90;;;1.80;;
11500;SDS011;5807;51.606;7.624;2022-07-29T02:47:07;4.27;;;1.70;;
11500;SDS011;5807;51.606;7.624;2022-07-29T02:49:42;2.50;;;1.80;;
11500;SDS011;5807;51.606;7.624;2022-07-29T02:52:18;2.50;;;1.80;;
11500;SDS011;5807;51.606;7.624;2022-07-29T02:54:51;3.67;;;1.90;;
11500;SDS011;5807;51.606;7.624;2022-07-29T02:57:22;2.83;;;1.83;;
11500;SDS011;5807;51.606;7.624;2022-07-29T02:59:57;2.47;;;1.80;;
11500;SDS011;5807;51.606;7.624;2022-07-29T03:02:28;3.80;;;1.87;;
11500;SDS011;5807;51.606;7.624;2022-07-29T03:05:00;4.43;;;1.90;;
11500;SDS011;5807;51.606;7.624;2022-07-29T03:07:29;4.20;;;1.83;;
11500;SDS011;5807;51.606;7.624;2022-07-29T03:09:57;2.07;;;1.80;;
11500;SDS011;5807;51.606;7.624;2022-07-29T03:12:25;3.97;;;2.10;;
11500;SDS011;5807;51.606;7.624;2022-07-29T03:14:53;2.33;;;1.70;;
11500;SDS011;5807;51.606;7.624;2022-07-29T03:17:21;2.10;;;1.90;;
11500;SDS011;5807;51.606;7.624;2022-07-29T03:19:49;7.10;;;2.23;;
11500;SDS011;5807;51.606;7.624;2022-07-29T03:22:18;2.57;;;1.90;;
11500;SDS011;5807;51.606;7.624;2022-07-29T03:24:45;2.20;;;1.93;;
11500;SDS011;5807;51.606;7.624;2022-07-29T03:27:12;4.93;;;2.13;;
11500;SDS011;5807;51.606;7.624;2022-07-29T03:29:39;4.40;;;1.77;;
11500;SDS011;5807;51.606;7.624;2022-07-29T03:32:06;2.07;;;1.87;;
11500;SDS011;5807;51.606;7.624;2022-07-29T03:34:33;4.23;;;1.93;;
11500;SDS011;5807;51.606;7.624;2022-07-29T03:37:01;1.47;;;1.47;;
11500;SDS011;5807;51.606;7.624;2022-07-29T03:39:31;4.53;;;1.93;;
11500;SDS011;5807;51.606;7.624;2022-07-29T03:42:02;4.07;;;1.80;;
11500;SDS011;5807;51.606;7.624;2022-07-29T03:44:32;4.03;;;1.90;;
11500;SDS011;5807;51.606;7.624;2022-07-29T03:47:01;2.23;;;1.87;;
11500;SDS011;5807;51.606;7.624;2022-07-29T03:49:30;3.07;;;1.90;;
11500;SDS011;5807;51.606;7.624;2022-07-29T03:51:58;2.80;;;1.67;;
11500;SDS011;5807;51.606;7.624;2022-07-29T03:54:26;2.10;;;1.67;;
11500;SDS011;5807;51.606;7.624;2022-07-29T03:56:55;7.13;;;1.80;;
11500;SDS011;5807;51.606;7.624;2022-07-29T03:59:25;8.50;;;2.57;;
11500;SDS011;5807;51.606;7.624;2022-07-29T04:01:53;4.20;;;1.90;;
11500;SDS011;5807;51.606;7.624;2022-07-29T04:04:20;6.47;;;2.00;;
11500;SDS011;5807;51.606;7.624;2022-07-29T04:06:48;1.93;;;1.83;;
11500;SDS011;5807;51.606;7.624;2022-07-29T04:09:15;2.47;;;1.97;;
11500;SDS011;5807;51.606;7.624;2022-07-29T04:11:42;4.47;;;1.80;;
11500;SDS011;5807;51.606;7.624;2022-07-29T04:14:10;4.07;;;1.80;;
11500;SDS011;5807;51.606;7.624;2022-07-29T04:16:37;1.60;;;1.50;;
11500;SDS011;5807;51.606;7.624;2022-07-29T04:19:04;1.43;;;1.43;;
11500;SDS011;5807;51.606;7.624;2022-07-29T04:21:31;2.10;;;1.50;;
11500;SDS011;5807;51.606;7.624;2022-07-29T04:24:03;2.20;;;1.73;;
11500;SDS011;5807;51.606;7.624;2022-07-29T04:26:30;2.30;;;1.70;;
11500;SDS011;5807;51.606;7.624;2022-07-29T04:28:59;1.87;;;1.77;;
11500;SDS011;5807;51.606;7.624;2022-07-29T04:31:28;2.23;;;1.80;;
11500;SDS011;5807;51.606;7.624;2022-07-29T04:33:55;1.87;;;1.73;;
11500;SDS011;5807;51.606;7.624;2022-07-29T04:36:22;1.93;;;1.83;;
11500;SDS011;5807;51.606;7.624;2022-07-29T04:38:49;3.93;;;1.97;;
11500;SDS011;5807;51.606;7.624;2022-07-29T04:41:16;2.63;;;1.77;;
11500;SDS011;5807;51.606;7.624;2022-07-29T04:43:43;3.23;;;1.70;;
11500;SDS011;5807;51.606;7.624;2022-07-29T04:46:10;6.03;;;1.80;;
11500;SDS011;5807;51.606;7.624;2022-07-29T04:48:38;2.10;;;2.00;;
11500;SDS011;5807;51.606;7.624;2022-07-29T04:51:05;5.17;;;1.83;;
11500;SDS011;5807;51.606;7.624;2022-07-29T04:53:32;2.17;;;2.00;;
11500;SDS011;5807;51.606;7.624;2022-07-29T04:55:59;2.47;;;2.23;;
11500;SDS011;5807;51.606;7.624;2022-07-29T04:58:26;5.60;;;2.30;;
11500;SDS011;5807;51.606;7.624;2022-07-29T05:00:53;3.43;;;2.00;;
11500;SDS011;5807;51.606;7.624;2022-07-29T05:03:20;1.87;;;1.77;;
11500;SDS011;5807;51.606;7.624;2022-07-29T05:05:48;3.53;;;2.43;;
11500;SDS011;5807;51.606;7.624;2022-07-29T05:08:15;5.27;;;2.17;;
11500;SDS011;5807;51.606;7.624;2022-07-29T05:10:42;3.37;;;2.07;;
11500;SDS011;5807;51.606;7.624;2022-07-29T05:13:09;3.77;;;1.80;;
11500;SDS011;5807;51.606;7.624;2022-07-29T05:15:36;4.27;;;2.53;;
11500;SDS011;5807;51.606;7.624;2022-07-29T05:21:04;2.43;;;2.10;;
11500;SDS011;5807;51.606;7.624;2022-07-29T05:23:31;3.77;;;2.47;;
11500;SDS011;5807;51.606;7.624;2022-07-29T05:25:58;2.10;;;1.90;;
11500;SDS011;5807;51.606;7.624;2022-07-29T05:28:25;6.00;;;1.80;;
11500;SDS011;5807;51.606;7.624;2022-07-29T05:30:52;4.30;;;2.10;;
11500;SDS011;5807;51.606;7.624;2022-07-29T05:33:18;2.23;;;2.03;;
11500;SDS011;5807;51.606;7.624;2022-07-29T05:35:45;5.93;;;1.80;;
11500;SDS011;5807;51.606;7.624;2022-07-29T05:38:14;3.47;;;2.07;;
11500;SDS011;5807;51.606;7.624;2022-07-29T05:40:41;5.63;;;3.13;;
11500;SDS011;5807;51.606;7.624;2022-07-29T05:43:08;2.43;;;2.23;;
11500;SDS011;5807;51.606;7.624;2022-07-29T05:45:34;2.57;;;2.37;;
11500;SDS011;5807;51.606;7.624;2022-07-29T05:48:02;2.73;;;1.90;;
11500;SDS011;5807;51.606;7.624;2022-07-29T05:50:29;2.07;;;1.60;;
11500;SDS011;5807;51.606;7.624;2022-07-29T05:52:56;5.43;;;2.17;;
11500;SDS011;5807;51.606;7.624;2022-07-29T05:55:24;3.00;;;2.07;;
11500;SDS011;5807;51.606;7.624;2022-07-29T05:57:51;2.37;;;1.70;;
11500;SDS011;5807;51.606;7.624;2022-07-29T06:00:18;8.73;;;2.17;;
11500;SDS011;5807;51.606;7.624;2022-07-29T06:02:45;3.07;;;2.07;;
11500;SDS011;5807;51.606;7.624;2022-07-29T06:05:12;2.97;;;2.10;;
11500;SDS011;5807;51.606;7.624;2022-07-29T06:07:40;5.70;;;2.30;;
11500;SDS011;5807;51.606;7.624;2022-07-29T06:10:07;4.17;;;1.93;;
11500;SDS011;5807;51.606;7.624;2022-07-29T06:12:36;4.83;;;1.90;;
11500;SDS011;5807;51.606;7.624;2022-07-29T06:17:40;1.80;;;1.70;;
11500;SDS011;5807;51.606;7.624;2022-07-29T06:20:07;4.40;;;1.73;;
11500;SDS011;5807;51.606;7.624;2022-07-29T06:22:35;2.30;;;1.67;;
11500;SDS011;5807;51.606;7.624;2022-07-29T06:25:02;3.23;;;1.77;;
11500;SDS011;5807;51.606;7.624;2022-07-29T06:27:29;3.23;;;2.03;;
11500;SDS011;5807;51.606;7.624;2022-07-29T06:29:58;7.77;;;1.97;;
11500;SDS011;5807;51.606;7.624;2022-07-29T06:32:26;2.30;;;2.10;;
11500;SDS011;5807;51.606;7.624;2022-07-29T06:34:53;2.03;;;1.80;;
11500;SDS011;5807;51.606;7.624;2022-07-29T06:37:20;2.93;;;1.80;;
11500;SDS011;5807;51.606;7.624;2022-07-29T06:39:47;5.07;;;2.00;;
11500;SDS011;5807;51.606;7.624;2022-07-29T06:42:34;1.63;;;1.53;;
11500;SDS011;5807;51.606;7.624;2022-07-29T06:45:03;3.37;;;1.80;;
11500;SDS011;5807;51.606;7.624;2022-07-29T06:47:30;3.33;;;2.00;;
11500;SDS011;5807;51.606;7.624;2022-07-29T06:49:57;2.60;;;1.80;;
11500;SDS011;5807;51.606;7.624;2022-07-29T06:52:24;2.80;;;1.70;;
11500;SDS011;5807;51.606;7.624;2022-07-29T06:54:51;2.97;;;2.20;;
11500;SDS011;5807;51.606;7.624;2022-07-29T06:57:18;2.30;;;1.87;;
11500;SDS011;5807;51.606;7.624;2022-07-29T06:59:45;2.77;;;2.10;;
11500;SDS011;5807;51.606;7.624;2022-07-29T07:02:14;4.73;;;2.47;;
11500;SDS011;5807;51.606;7.624;2022-07-29T07:04:41;2.37;;;2.10;;
11500;SDS011;5807;51.606;7.624;2022-07-29T07:07:08;3.07;;;2.10;;
11500;SDS011;5807;51.606;7.624;2022-07-29T07:09:35;6.83;;;2.30;;
11500;SDS011;5807;51.606;7.624;2022-07-29T07:12:03;3.10;;;1.93;;
11500;SDS011;5807;51.606;7.624;2022-07-29T07:14:30;9.33;;;2.33;;
11500;SDS011;5807;51.606;7.624;2022-07-29T07:16:57;2.10;;;1.70;;
11500;SDS011;5807;51.606;7.624;2022-07-29T07:19:27;4.60;;;2.03;;
11500;SDS011;5807;51.606;7.624;2022-07-29T07:21:54;4.63;;;1.77;;
11500;SDS011;5807;51.606;7.624;2022-07-29T07:24:21;3.27;;;1.80;;
11500;SDS011;5807;51.606;7.624;2022-07-29T07:26:48;3.37;;;1.90;;
11500;SDS011;5807;51.606;7.624;2022-07-29T07:32:15;4.67;;;2.07;;
11500;SDS011;5807;51.606;7.624;2022-07-29T07:34:44;3.93;;;1.83;;
11500;SDS011;5807;51.606;7.624;2022-07-29T07:37:11;3.00;;;1.67;;
11500;SDS011;5807;51.606;7.624;2022-07-29T07:39:39;4.70;;;1.73;;
11500;SDS011;5807;51.606;7.624;2022-07-29T07:42:06;2.33;;;1.67;;
11500;SDS011;5807;51.606;7.624;2022-07-29T07:44:35;7.13;;;1.87;;
11500;SDS011;5807;51.606;7.624;2022-07-29T07:47:02;3.57;;;1.70;;
11500;SDS011;5807;51.606;7.624;2022-07-29T07:49:29;2.57;;;1.90;;
11500;SDS011;5807;51.606;7.624;2022-07-29T07:51:58;2.43;;;2.03;;
11500;SDS011;5807;51.606;7.624;2022-07-29T07:54:24;1.70;;;1.60;;
11500;SDS011;5807;51.606;7.624;2022-07-29T07:56:51;2.83;;;2.23;;
11500;SDS011;5807;51.606;7.624;2022-07-29T07:59:18;2.73;;;1.80;;
11500;SDS011;5807;51.606;7.624;2022-07-29T08:01:45;2.83;;;2.00;;
11500;SDS011;5807;51.606;7.624;2022-07-29T08:04:12;2.70;;;1.90;;
11500;SDS011;5807;51.606;7.624;2022-07-29T08:06:39;1.67;;;1.57;;
11500;SDS011;5807;51.606;7.624;2022-07-29T08:09:07;3.07;;;1.80;;
11500;SDS011;5807;51.606;7.624;2022-07-29T08:11:34;3.87;;;2.07;;
11500;SDS011;5807;51.606;7.624;2022-07-29T08:14:01;3.77;;;2.30;;
11500;SDS011;5807;51.606;7.624;2022-07-29T08:16:28;4.53;;;1.87;;
11500;SDS011;5807;51.606;7.624;2022-07-29T08:18:55;2.83;;;1.80;;
11500;SDS011;5807;51.606;7.624;2022-07-29T08:21:23;2.93;;;2.10;;
11500;SDS011;5807;51.606;7.624;2022-07-29T08:23:51;3.93;;;1.93;;
11500;SDS011;5807;51.606;7.624;2022-07-29T08:26:40;2.90;;;1.70;;
11500;SDS011;5807;51.606;7.624;2022-07-29T08:29:06;9.47;;;2.00;;
11500;SDS011;5807;51.606;7.624;2022-07-29T08:31:34;4.63;;;2.10;;
11500;SDS011;5807;51.606;7.624;2022-07-29T08:34:01;4.50;;;1.80;;
11500;SDS011;5807;51.606;7.624;2022-07-29T08:36:28;5.20;;;2.13;;
11500;SDS011;5807;51.606;7.624;2022-07-29T08:38:55;3.73;;;1.73;;
11500;SDS011;5807;51.606;7.624;2022-07-29T08:41:23;2.70;;;2.00;;
11500;SDS011;5807;51.606;7.624;2022-07-29T08:43:51;3.20;;;1.97;;
11500;SDS011;5807;51.606;7.624;2022-07-29T08:46:19;6.17;;;1.80;;
11500;SDS011;5807;51.606;7.624;2022-07-29T08:48:46;3.83;;;2.07;;
11500;SDS011;5807;51.606;7.624;2022-07-29T08:51:14;3.80;;;2.20;;
11500;SDS011;5807;51.606;7.624;2022-07-29T08:53:43;2.40;;;2.13;;
11500;SDS011;5807;51.606;7.624;2022-07-29T08:56:12;2.40;;;1.70;;
11500;SDS011;5807;51.606;7.624;2022-07-29T08:58:39;2.00;;;1.83;;
11500;SDS011;5807;51.606;7.624;2022-07-29T09:01:09;2.43;;;1.80;;
11500;SDS011;5807;51.606;7.624;2022-07-29T09:03:37;3.97;;;1.93;;
11500;SDS011;5807;51.606;7.624;2022-07-29T09:06:05;2.93;;;1.83;;
11500;SDS011;5807;51.606;7.624;2022-07-29T09:08:32;5.57;;;1.90;;
11500;SDS011;5807;51.606;7.624;2022-07-29T09:11:00;4.70;;;1.83;;
11500;SDS011;5807;51.606;7.624;2022-07-29T09:13:28;3.60;;;1.73;;
11500;SDS011;5807;51.606;7.624;2022-07-29T09:15:55;2.17;;;1.83;;
11500;SDS011;5807;51.606;7.624;2022-07-29T09:21:09;2.33;;;1.80;;
11500;SDS011;5807;51.606;7.624;2022-07-29T09:24:03;2.80;;;1.90;;
11500;SDS011;5807;51.606;7.624;2022-07-29T09:26:32;4.93;;;2.00;;
11500;SDS011;5807;51.606;7.624;2022-07-29T09:29:01;2.10;;;1.90;;
11500;SDS011;5807;51.606;7.624;2022-07-29T09:31:36;6.43;;;1.83;;
11500;SDS011;5807;51.606;7.624;2022-07-29T09:34:06;5.13;;;2.00;;
11500;SDS011;5807;51.606;7.624;2022-07-29T09:36:40;5.63;;;1.80;;
11500;SDS011;5807;51.606;7.624;2022-07-29T09:39:07;4.73;;;2.10;;
11500;SDS011;5807;51.606;7.624;2022-07-29T09:41:44;2.90;;;2.00;;
11500;SDS011;5807;51.606;7.624;2022-07-29T09:44:12;3.00;;;1.97;;
11500;SDS011;5807;51.606;7.624;2022-07-29T09:46:40;2.50;;;1.93;;
11500;SDS011;5807;51.606;7.624;2022-07-29T09:49:19;3.10;;;1.90;;
11500;SDS011;5807;51.606;7.624;2022-07-29T09:51:46;4.73;;;1.80;;
11500;SDS011;5807;51.606;7.624;2022-07-29T09:54:22;2.97;;;2.00;;
11500;SDS011;5807;51.606;7.624;2022-07-29T09:56:50;3.53;;;2.10;;
11500;SDS011;5807;51.606;7.624;2022-07-29T09:59:18;2.73;;;1.97;;
11500;SDS011;5807;51.606;7.624;2022-07-29T10:01:49;2.83;;;1.90;;
11500;SDS011;5807;51.606;7.624;2022-07-29T10:04:16;4.07;;;2.30;;
11500;SDS011;5807;51.606;7.624;2022-07-29T10:06:56;7.20;;;2.30;;
11500;SDS011;5807;51.606;7.624;2022-07-29T10:09:25;4.60;;;1.80;;
11500;SDS011;5807;51.606;7.624;2022-07-29T10:12:05;2.13;;;1.90;;
11500;SDS011;5807;51.606;7.624;2022-07-29T10:14:34;5.20;;;3.10;;
11500;SDS011;5807;51.606;7.624;2022-07-29T10:17:02;4.23;;;2.03;;
11500;SDS011;5807;51.606;7.624;2022-07-29T10:19:31;4.60;;;2.10;;
11500;SDS011;5807;51.606;7.624;2022-07-29T10:22:02;2.53;;;1.80;;
11500;SDS011;5807;51.606;7.624;2022-07-29T10:24:31;2.43;;;2.00;;
11500;SDS011;5807;51.606;7.624;2022-07-29T10:26:59;4.30;;;2.40;;
11500;SDS011;5807;51.606;7.624;2022-07-29T10:29:27;3.80;;;1.90;;
11500;SDS011;5807;51.606;7.624;2022-07-29T10:32:00;5.77;;;1.83;;
11500;SDS011;5807;51.606;7.624;2022-07-29T10:34:50;1.87;;;1.77;;
11500;SDS011;5807;51.606;7.624;2022-07-29T10:37:37;3.23;;;2.00;;
11500;SDS011;5807;51.606;7.624;2022-07-29T10:40:22;5.50;;;2.00;;
11500;SDS011;5807;51.606;7.624;2022-07-29T10:43:16;2.10;;;1.90;;
11500;SDS011;5807;51.606;7.624;2022-07-29T10:45:48;1.70;;;1.60;;
11500;SDS011;5807;51.606;7.624;2022-07-29T10:48:21;4.73;;;2.00;;
11500;SDS011;5807;51.606;7.624;2022-07-29T10:50:52;4.57;;;2.30;;
11500;SDS011;5807;51.606;7.624;2022-07-29T10:53:45;5.47;;;2.37;;
11500;SDS011;5807;51.606;7.624;2022-07-29T10:56:23;5.80;;;2.50;;
11500;SDS011;5807;51.606;7.624;2022-07-29T11:01:53;3.87;;;2.40;;
11500;SDS011;5807;51.606;7.624;2022-07-29T11:07:23;3.17;;;1.97;;
11500;SDS011;5807;51.606;7.624;2022-07-29T11:12:52;2.93;;;2.10;;
11500;SDS011;5807;51.606;7.624;2022-07-29T11:15:20;3.93;;;2.40;;
11500;SDS011;5807;51.606;7.624;2022-07-29T11:20:35;5.87;;;2.13;;
11500;SDS011;5807;51.606;7.624;2022-07-29T11:28:52;6.13;;;2.90;;
11500;SDS011;5807;51.606;7.624;2022-07-29T11:31:35;3.40;;;3.00;;
11500;SDS011;5807;51.606;7.624;2022-07-29T11:34:19;3.43;;;2.80;;
11500;SDS011;5807;51.606;7.624;2022-07-29T11:40:08;2.70;;;2.50;;
11500;SDS011;5807;51.606;7.624;2022-07-29T11:42:45;4.07;;;3.03;;
11500;SDS011;5807;51.606;7.624;2022-07-29T11:45:13;3.40;;;2.73;;
11500;SDS011;5807;51.606;7.624;2022-07-29T11:47:47;6.50;;;3.03;;
11500;SDS011;5807;51.606;7.624;2022-07-29T11:50:26;3.97;;;3.10;;
11500;SDS011;5807;51.606;7.624;2022-07-29T11:52:55;2.73;;;2.30;;
11500;SDS011;5807;51.606;7.624;2022-07-29T11:55:23;6.13;;;2.70;;
11500;SDS011;5807;51.606;7.624;2022-07-29T11:57:53;2.60;;;2.40;;
11500;SDS011;5807;51.606;7.624;2022-07-29T12:00:26;3.60;;;2.60;;
11500;SDS011;5807;51.606;7.624;2022-07-29T12:02:55;3.97;;;2.93;;
11500;SDS011;5807;51.606;7.624;2022-07-29T12:05:30;3.10;;;2.80;;
11500;SDS011;5807;51.606;7.624;2022-07-29T12:08:04;3.87;;;2.87;;
11500;SDS011;5807;51.606;7.624;2022-07-29T12:10:42;3.27;;;3.03;;
11500;SDS011;5807;51.606;7.624;2022-07-29T12:13:12;6.10;;;3.07;;
11500;SDS011;5807;51.606;7.624;2022-07-29T12:15:40;6.50;;;2.77;;
11500;SDS011;5807;51.606;7.624;2022-07-29T12:18:09;4.10;;;2.70;;
11500;SDS011;5807;51.606;7.624;2022-07-29T12:20:37;8.30;;;2.90;;
11500;SDS011;5807;51.606;7.624;2022-07-29T12:23:05;4.70;;;2.83;;
11500;SDS011;5807;51.606;7.624;2022-07-29T12:25:33;4.23;;;2.90;;
11500;SDS011;5807;51.606;7.624;2022-07-29T12:28:02;6.27;;;2.97;;
11500;SDS011;5807;51.606;7.624;2022-07-29T12:30:35;5.43;;;2.83;;
11500;SDS011;5807;51.606;7.624;2022-07-29T12:33:11;4.33;;;2.50;;
11500;SDS011;5807;51.606;7.624;2022-07-29T12:35:44;4.43;;;2.93;;
11500;SDS011;5807;51.606;7.624;2022-07-29T12:38:12;6.60;;;3.07;;
11500;SDS011;5807;51.606;7.624;2022-07-29T12:40:40;2.83;;;2.47;;
11500;SDS011;5807;51.606;7.624;2022-07-29T12:43:08;3.07;;;2.60;;
11500;SDS011;5807;51.606;7.624;2022-07-29T12:45:38;5.03;;;3.27;;
11500;SDS011;5807;51.606;7.624;2022-07-29T12:48:06;4.83;;;2.80;;
11500;SDS011;5807;51.606;7.624;2022-07-29T12:50:34;3.57;;;2.90;;
11500;SDS011;5807;51.606;7.624;2022-07-29T12:53:10;2.97;;;2.53;;
11500;SDS011;5807;51.606;7.624;2022-07-29T12:55:39;4.17;;;2.73;;
11500;SDS011;5807;51.606;7.624;2022-07-29T12:58:10;2.83;;;2.57;;
11500;SDS011;5807;51.606;7.624;2022-07-29T13:00:38;12.33;;;3.37;;
11500;SDS011;5807;51.606;7.624;2022-07-29T13:03:05;5.67;;;2.90;;
11500;SDS011;5807;51.606;7.624;2022-07-29T13:05:39;5.10;;;2.63;;
11500;SDS011;5807;51.606;7.624;2022-07-29T13:08:10;3.80;;;2.73;;
11500;SDS011;5807;51.606;7.624;2022-07-29T13:10:38;6.20;;;2.60;;
11500;SDS011;5807;51.606;7.624;2022-07-29T13:13:06;3.70;;;2.80;;
11500;SDS011;5807;51.606;7.624;2022-07-29T13:15:34;3.30;;;2.87;;
11500;SDS011;5807;51.606;7.624;2022-07-29T13:18:03;3.20;;;2.90;;
11500;SDS011;5807;51.606;7.624;2022-07-29T13:20:31;6.20;;;3.47;;
11500;SDS011;5807;51.606;7.624;2022-07-29T13:22:59;5.57;;;3.67;;
11500;SDS011;5807;51.606;7.624;2022-07-29T13:25:27;6.57;;;3.20;;
11500;SDS011;5807;51.606;7.624;2022-07-29T13:27:56;4.13;;;3.23;;
11500;SDS011;5807;51.606;7.624;2022-07-29T13:30:24;7.20;;;3.70;;
11500;SDS011;5807;51.606;7.624;2022-07-29T13:32:51;4.13;;;3.17;;
11500;SDS011;5807;51.606;7.624;2022-07-29T13:35:21;3.90;;;3.50;;
11500;SDS011;5807;51.606;7.624;2022-07-29T13:37:48;8.63;;;3.93;;
11500;SDS011;5807;51.606;7.624;2022-07-29T13:40:15;4.13;;;3.60;;
11500;SDS011;5807;51.606;7.624;2022-07-29T13:42:42;5.33;;;3.43;;
11500;SDS011;5807;51.606;7.624;2022-07-29T13:45:09;3.40;;;3.07;;
11500;SDS011;5807;51.606;7.624;2022-07-29T13:47:37;4.23;;;3.57;;
11500;SDS011;5807;51.606;7.624;2022-07-29T13:50:05;5.63;;;3.37;;
11500;SDS011;5807;51.606;7.624;2022-07-29T13:52:36;4.97;;;3.63;;
11500;SDS011;5807;51.606;7.624;2022-07-29T13:55:07;6.03;;;3.67;;
11500;SDS011;5807;51.606;7.624;2022-07-29T13:57:34;4.43;;;3.50;;
11500;SDS011;5807;51.606;7.624;2022-07-29T14:00:01;4.53;;;3.40;;
11500;SDS011;5807;51.606;7.624;2022-07-29T14:02:28;6.70;;;4.23;;
11500;SDS011;5807;51.606;7.624;2022-07-29T14:04:55;4.83;;;3.60;;
11500;SDS011;5807;51.606;7.624;2022-07-29T14:07:22;3.83;;;3.23;;
11500;SDS011;5807;51.606;7.624;2022-07-29T14:09:51;3.83;;;3.53;;
11500;SDS011;5807;51.606;7.624;2022-07-29T14:12:18;5.63;;;3.60;;
11500;SDS011;5807;51.606;7.624;2022-07-29T14:14:45;5.77;;;3.60;;
11500;SDS011;5807;51.606;7.624;2022-07-29T14:17:11;5.33;;;3.03;;
11500;SDS011;5807;51.606;7.624;2022-07-29T14:19:38;4.30;;;3.50;;
11500;SDS011;5807;51.606;7.624;2022-07-29T14:22:06;4.40;;;3.63;;
11500;SDS011;5807;51.606;7.624;2022-07-29T14:24:35;4.73;;;3.20;;
11500;SDS011;5807;51.606;7.624;2022-07-29T14:27:03;6.50;;;3.27;;
11500;SDS011;5807;51.606;7.624;2022-07-29T14:29:31;3.73;;;2.93;;
11500;SDS011;5807;51.606;7.624;2022-07-29T14:31:58;9.00;;;3.30;;
11500;SDS011;5807;51.606;7.624;2022-07-29T14:34:25;5.53;;;3.07;;
11500;SDS011;5807;51.606;7.624;2022-07-29T14:36:52;4.83;;;3.03;;
11500;SDS011;5807;51.606;7.624;2022-07-29T14:39:20;4.03;;;3.00;;
11500;SDS011;5807;51.606;7.624;2022-07-29T14:41:48;3.00;;;2.80;;
11500;SDS011;5807;51.606;7.624;2022-07-29T14:44:17;3.70;;;2.93;;
11500;SDS011;5807;51.606;7.624;2022-07-29T14:46:44;4.53;;;2.90;;
11500;SDS011;5807;51.606;7.624;2022-07-29T14:49:11;7.80;;;3.10;;
11500;SDS011;5807;51.606;7.624;2022-07-29T14:51:38;7.13;;;2.77;;
11500;SDS011;5807;51.606;7.624;2022-07-29T14:54:05;7.13;;;3.30;;
11500;SDS011;5807;51.606;7.624;2022-07-29T14:56:32;4.80;;;3.37;;
11500;SDS011;5807;51.606;7.624;2022-07-29T14:58:59;3.87;;;2.80;;
11500;SDS011;5807;51.606;7.624;2022-07-29T15:01:27;4.57;;;3.47;;
11500;SDS011;5807;51.606;7.624;2022-07-29T15:03:54;4.60;;;2.80;;
11500;SDS011;5807;51.606;7.624;2022-07-29T15:06:21;6.80;;;3.23;;
11500;SDS011;5807;51.606;7.624;2022-07-29T15:08:48;4.80;;;3.30;;
11500;SDS011;5807;51.606;7.624;2022-07-29T15:11:17;6.93;;;3.03;;
11500;SDS011;5807;51.606;7.624;2022-07-29T15:13:44;6.07;;;3.17;;
11500;SDS011;5807;51.606;7.624;2022-07-29T15:16:11;3.00;;;2.80;;
11500;SDS011;5807;51.606;7.624;2022-07-29T15:18:40;5.10;;;3.10;;
11500;SDS011;5807;51.606;7.624;2022-07-29T15:21:06;5.00;;;3.13;;
11500;SDS011;5807;51.606;7.624;2022-07-29T15:23:33;6.93;;;3.23;;
11500;SDS011;5807;51.606;7.624;2022-07-29T15:26:01;4.27;;;3.07;;
11500;SDS011;5807;51.606;7.624;2022-07-29T15:28:28;4.90;;;2.60;;
11500;SDS011;5807;51.606;7.624;2022-07-29T15:30:55;3.10;;;2.67;;
11500;SDS011;5807;51.606;7.624;2022-07-29T15:33:22;4.57;;;2.73;;
11500;SDS011;5807;51.606;7.624;2022-07-29T15:35:50;3.33;;;2.90;;
11500;SDS011;5807;51.606;7.624;2022-07-29T15:38:17;5.17;;;2.63;;
11500;SDS011;5807;51.606;7.624;2022-07-29T15:40:44;3.60;;;2.70;;
11500;SDS011;5807;51.606;7.624;2022-07-29T15:43:11;4.80;;;2.70;;
11500;SDS011;5807;51.606;7.624;2022-07-29T15:45:38;3.77;;;2.70;;
11500;SDS011;5807;51.606;7.624;2022-07-29T15:48:26;4.43;;;3.03;;